Time;durP1;ratioP1;P1;durP2;ratioP2;P2;SDS_P1;SDS_P2;PMS_P1;PMS_P2;Temp;Humidity;BMP_temperature;BMP_pressure;BME280_temperature;BME280_humidity;BME280_pressure;Samples;Min_cycle;Max_cycle;Signal;HPM_P1;HPM_P2
2023/05/08 05:01:19;;;;;;;;;11.00;11.00;;;;;16.18;100.00;97182.06;5506540;23;45710;-80
2023/05/08 05:03:44;;;;;;;;;11.67;9.67;;;;;16.19;100.00;97749.84;4981091;28;45698;-81
2023/05/08 05:06:09;;;;;;;;;14.67;10.33;;;;;16.19;100.00;98558.78;5227132;22;45546;-83
2023/05/08 05:08:35;;;;;;;;;13.00;9.33;;;;;16.07;100.00;99191.59;4962758;28;45721;-82
2023/05/08 05:13:35;;;;;;;;;10.33;9.67;;;;;16.18;100.00;100498.09;5869409;22;45473;-80
2023/05/08 05:16:01;;;;;;;;;11.00;9.67;;;;;16.17;100.00;101236.75;5016431;28;45935;-81
2023/05/08 05:18:26;;;;;;;;;9.00;8.33;;;;;16.06;100.00;101660.53;5014126;28;54359;-81
2023/05/08 05:20:51;;;;;;;;;9.67;9.00;;;;;16.13;100.00;102880.50;5026503;28;52992;-81
2023/05/08 05:23:16;;;;;;;;;14.33;10.00;;;;;16.14;100.00;103412.31;5254881;22;48447;-81
2023/05/08 05:25:42;;;;;;;;;14.67;12.67;;;;;16.14;100.00;104381.13;4998147;28;46980;-80
2023/05/08 05:28:07;;;;;;;;;10.33;8.33;;;;;16.12;100.00;104959.78;5010871;28;45423;-81
2023/05/08 05:30:32;;;;;;;;;11.67;9.67;;;;;16.12;100.00;105902.00;5014784;28;45475;-81
2023/05/08 05:32:58;;;;;;;;;9.00;8.67;;;;;16.09;100.00;106308.50;5015331;28;45419;-81
2023/05/08 05:35:23;;;;;;;;;9.33;9.33;;;;;16.03;100.00;107135.84;5015035;28;49010;-81
2023/05/08 05:37:48;;;;;;;;;14.33;13.33;;;;;16.10;100.00;107869.56;5252765;22;45899;-81
2023/05/08 05:40:14;;;;;;;;;15.67;11.00;;;;;16.04;100.00;108511.28;5001971;28;45396;-80
2023/05/08 05:42:39;;;;;;;;;11.00;8.33;;;;;16.00;100.00;109152.13;5005698;28;45508;-80
2023/05/08 05:45:05;;;;;;;;;9.00;9.00;;;;;16.00;100.00;109328.16;5006616;28;47541;-81
2023/05/08 05:47:31;;;;;;;;;9.67;8.67;;;;;16.09;100.00;109909.00;5225458;22;45589;-81
2023/05/08 05:49:57;;;;;;;;;9.67;8.33;;;;;16.04;100.00;110448.53;4974519;28;45420;-81
2023/05/08 05:52:23;;;;;;;;;8.33;8.00;;;;;15.99;100.00;111099.38;4971237;28;45411;-81
2023/05/08 05:54:48;;;;;;;;;12.67;9.33;;;;;16.11;100.00;111625.34;4970792;28;45972;-81
2023/05/08 05:57:14;;;;;;;;;9.00;8.00;;;;;16.11;100.00;112151.13;4968273;28;50895;-82
2023/05/08 05:59:42;;;;;;;;;9.00;8.67;;;;;16.11;100.00;112453.13;4965917;28;46087;-83
2023/05/08 06:02:09;;;;;;;;;13.00;8.67;;;;;16.11;100.00;113184.00;4970639;28;45543;-84
2023/05/08 06:04:34;;;;;;;;;9.67;8.33;;;;;15.99;100.00;114142.44;4971640;28;47021;-83
2023/05/08 06:07:00;;;;;;;;;10.67;9.00;;;;;16.01;100.00;114591.41;4970560;28;45583;-81
2023/05/08 06:09:25;;;;;;;;;14.33;10.67;;;;;16.12;100.00;115605.00;4969973;28;46474;-82
2023/05/08 06:11:50;;;;;;;;;17.33;7.67;;;;;16.11;100.00;116362.44;4972362;28;45988;-82
2023/05/08 06:14:16;;;;;;;;;9.67;9.67;;;;;16.10;100.00;117334.94;4971301;28;46279;-82
2023/05/08 06:16:41;;;;;;;;;11.00;9.33;;;;;15.95;100.00;118481.91;4975954;28;46094;-83
2023/05/08 06:19:06;;;;;;;;;10.67;6.33;;;;;16.02;100.00;121390.03;4971226;28;45447;-82
2023/05/08 06:21:33;;;;;;;;;8.67;8.67;;;;;16.15;100.00;122231.19;4980510;28;45498;-85
2023/05/08 06:23:58;;;;;;;;;11.00;7.33;;;;;16.07;100.00;122229.06;4981106;28;46168;-83
2023/05/08 06:26:25;;;;;;;;;7.67;7.33;;;;;16.09;100.00;122130.53;4990034;28;45549;-84
2023/05/08 06:28:50;;;;;;;;;9.67;8.67;;;;;16.01;100.00;122674.41;4975840;28;45499;-83
2023/05/08 06:31:16;;;;;;;;;7.67;6.00;;;;;16.13;100.00;123355.47;4976632;28;45792;-82
2023/05/08 06:33:44;;;;;;;;;9.00;9.00;;;;;16.07;100.00;123680.78;4980179;28;45940;-82
2023/05/08 06:36:09;;;;;;;;;17.33;11.67;;;;;15.97;100.00;124254.50;4987624;28;45470;-82
2023/05/08 06:38:35;;;;;;;;;14.67;11.33;;;;;16.15;100.00;124609.09;4980207;28;45422;-83
2023/05/08 06:41:00;;;;;;;;;13.00;9.67;;;;;16.16;100.00;124772.47;4978342;28;45483;-81
2023/05/08 06:43:25;;;;;;;;;9.67;8.00;;;;;16.10;100.00;124756.97;4980758;28;45540;-81
2023/05/08 06:45:51;;;;;;;;;9.33;8.33;;;;;16.14;100.00;125298.41;4978057;28;45504;-81
2023/05/08 06:48:17;;;;;;;;;10.00;6.00;;;;;16.23;100.00;126625.75;4975038;28;46104;-81
2023/05/08 06:50:42;;;;;;;;;8.33;8.33;;;;;16.17;100.00;126276.13;4955424;28;46169;-81
2023/05/08 06:53:08;;;;;;;;;11.33;10.00;;;;;16.18;100.00;125332.38;4972853;28;46462;-82
2023/05/08 06:55:33;;;;;;;;;10.67;9.33;;;;;16.16;100.00;126486.16;4973400;28;45591;-82
2023/05/08 06:57:59;;;;;;;;;9.33;8.00;;;;;16.25;100.00;127389.63;4970175;28;45584;-82
2023/05/08 07:00:25;;;;;;;;;10.67;9.33;;;;;16.24;100.00;126865.00;4970730;28;46844;-82
2023/05/08 07:02:50;;;;;;;;;11.33;8.00;;;;;16.21;100.00;127735.53;4960042;28;47358;-83
2023/05/08 07:05:16;;;;;;;;;12.00;8.67;;;;;16.24;100.00;128264.59;4974322;28;45630;-82
2023/05/08 07:07:42;;;;;;;;;11.67;10.33;;;;;16.12;100.00;129858.59;4975546;28;45546;-83
2023/05/08 07:10:08;;;;;;;;;14.00;10.33;;;;;16.02;100.00;130150.56;4953755;28;45740;-81
2023/05/08 07:12:33;;;;;;;;;11.33;10.33;;;;;16.03;100.00;130793.00;4975309;28;45983;-84
2023/05/08 07:14:59;;;;;;;;;8.67;7.67;;;;;15.78;100.00;128884.34;4982551;28;49570;-82
2023/05/08 07:17:24;;;;;;;;;7.33;6.00;;;;;16.32;100.00;129315.56;4969624;28;48444;-81
2023/05/08 07:19:50;;;;;;;;;9.33;8.33;;;;;16.33;100.00;128307.56;4978310;28;46823;-83
2023/05/08 07:22:15;;;;;;;;;8.67;5.67;;;;;16.16;100.00;125605.69;4980685;28;46367;-82
2023/05/08 07:24:41;;;;;;;;;5.67;5.67;;;;;16.33;100.00;119108.91;4979772;28;46983;-83
2023/05/08 07:27:07;;;;;;;;;8.00;6.00;;;;;16.34;100.00;124737.75;4980440;28;45567;-85
2023/05/08 07:29:32;;;;;;;;;8.33;6.00;;;;;16.36;100.00;124609.38;4985347;28;45486;-84
2023/05/08 07:31:57;;;;;;;;;9.00;7.67;;;;;16.29;100.00;127463.25;4981171;28;46074;-84
2023/05/08 07:34:23;;;;;;;;;8.00;7.33;;;;;16.41;100.00;128874.91;4981372;28;45479;-82
2023/05/08 07:36:48;;;;;;;;;7.67;5.33;;;;;16.43;100.00;124839.69;4977820;28;46643;-83
2023/05/08 07:39:13;;;;;;;;;10.67;7.33;;;;;16.39;100.00;128153.88;4959125;28;45492;-82
2023/05/08 07:41:39;;;;;;;;;5.00;5.00;;;;;16.35;100.00;129068.69;4978356;28;46076;-83
2023/05/08 07:44:05;;;;;;;;;7.33;5.67;;;;;16.46;100.00;129092.91;4984342;28;45395;-84
2023/05/08 07:46:30;;;;;;;;;7.33;5.00;;;;;16.40;100.00;128009.81;4984482;28;45745;-83
2023/05/08 07:48:55;;;;;;;;;9.00;8.00;;;;;16.40;100.00;129773.22;4979753;28;45495;-83
2023/05/08 07:51:21;;;;;;;;;7.33;7.33;;;;;16.46;100.00;129785.41;4977085;28;46886;-83
2023/05/08 07:53:47;;;;;;;;;6.00;6.00;;;;;16.44;100.00;126593.16;4970221;28;45782;-82
2023/05/08 07:56:13;;;;;;;;;7.33;6.00;;;;;16.60;100.00;124168.38;4974110;28;47192;-82
2023/05/08 07:58:39;;;;;;;;;6.67;5.67;;;;;16.60;100.00;123660.69;4971939;28;46347;-82
2023/05/08 08:01:15;;;;;;;;;8.33;6.67;;;;;16.57;100.00;125557.09;4950964;28;47204;-83
2023/05/08 08:03:41;;;;;;;;;10.00;6.00;;;;;16.52;100.00;126678.09;4971789;28;45724;-83
2023/05/08 08:06:06;;;;;;;;;9.00;6.67;;;;;16.63;100.00;127395.25;4969266;28;45725;-85
2023/05/08 08:08:31;;;;;;;;;6.67;6.00;;;;;16.63;100.00;126148.34;4971967;28;46162;-82
2023/05/08 08:10:57;;;;;;;;;11.67;8.67;;;;;16.68;100.00;125101.41;4953562;28;48376;-82
2023/05/08 08:13:22;;;;;;;;;10.67;8.33;;;;;16.73;100.00;128108.41;4968765;28;46494;-83
2023/05/08 08:15:47;;;;;;;;;7.33;7.33;;;;;16.67;100.00;128096.41;4965871;28;46995;-85
2023/05/08 08:18:13;;;;;;;;;8.67;7.33;;;;;16.45;100.00;128743.94;4965928;28;45583;-87
2023/05/08 08:20:38;;;;;;;;;9.33;6.00;;;;;16.66;100.00;128788.94;4955991;28;47092;-83
2023/05/08 08:23:04;;;;;;;;;8.00;6.00;;;;;16.70;100.00;128101.88;4978656;28;45853;-83
2023/05/08 08:25:30;;;;;;;;;6.67;6.00;;;;;16.77;100.00;124563.41;4981179;28;46741;-84
2023/05/08 08:27:55;;;;;;;;;9.00;9.00;;;;;16.59;100.00;125798.56;4977972;28;45487;-82
2023/05/08 08:30:21;;;;;;;;;12.00;9.00;;;;;16.80;100.00;126043.03;4959974;28;48607;-83
2023/05/08 08:32:46;;;;;;;;;7.00;7.00;;;;;16.94;100.00;127112.50;4982382;28;45522;-83
2023/05/08 08:35:12;;;;;;;;;9.67;8.00;;;;;16.93;100.00;128151.00;4976515;28;46020;-83
2023/05/08 08:37:37;;;;;;;;;8.00;8.00;;;;;16.90;100.00;128145.56;4990582;28;45392;-83
2023/05/08 08:40:02;;;;;;;;;8.33;6.67;;;;;17.01;100.00;128168.50;4982479;28;46211;-83
2023/05/08 08:42:28;;;;;;;;;10.00;6.00;;;;;16.91;100.00;129188.69;4979117;28;45546;-82
2023/05/08 08:44:54;;;;;;;;;6.00;6.00;;;;;17.02;100.00;126782.91;4989392;28;45453;-83
2023/05/08 08:47:24;;;;;;;;;7.33;7.33;;;;;17.12;100.00;125763.88;4962303;28;45495;-83
2023/05/08 08:49:50;;;;;;;;;7.67;7.33;;;;;17.06;100.00;126792.63;4968043;28;47137;-82
2023/05/08 08:52:36;;;;;;;;;10.00;9.00;;;;;17.16;100.00;126813.22;4979323;28;45521;-82
2023/05/08 08:55:07;;;;;;;;;8.33;8.33;;;;;17.20;100.00;124739.38;4981786;28;45542;-82
2023/05/08 08:57:35;;;;;;;;;7.67;6.00;;;;;16.95;100.00;124341.72;4987781;28;45772;-83
2023/05/08 09:00:04;;;;;;;;;8.00;6.67;;;;;17.21;100.00;126070.44;4977883;28;46342;-83
2023/05/08 09:02:30;;;;;;;;;5.00;5.00;;;;;17.22;100.00;126132.22;4981608;28;45473;-83
2023/05/08 09:04:57;;;;;;;;;9.67;7.00;;;;;17.03;100.00;123626.38;4974806;28;45488;-83
2023/05/08 09:07:23;;;;;;;;;7.67;7.67;;;;;17.25;100.00;125443.72;4989381;28;45696;-83
2023/05/08 09:09:49;;;;;;;;;8.33;6.00;;;;;16.97;100.00;125384.94;4982384;28;46954;-84
2023/05/08 09:12:15;;;;;;;;;8.67;7.00;;;;;17.21;100.00;122314.53;4986400;28;45488;-84
2023/05/08 09:14:41;;;;;;;;;7.67;7.00;;;;;17.18;100.00;117805.06;4983023;28;45472;-83
2023/05/08 09:17:06;;;;;;;;;5.00;5.00;;;;;16.99;100.00;122962.72;4976874;28;45437;-83
2023/05/08 09:19:32;;;;;;;;;7.67;6.00;;;;;17.03;100.00;126091.38;4985328;28;45439;-83
2023/05/08 09:22:02;;;;;;;;;6.33;4.67;;;;;17.20;100.00;127167.75;4983582;28;45468;-83
2023/05/08 09:24:57;;;;;;;;;4.33;3.67;;;;;17.26;100.00;128916.38;4981889;28;45616;-83
2023/05/08 09:27:27;;;;;;;;;5.67;5.67;;;;;17.30;100.00;127189.41;4989823;28;45561;-83
2023/05/08 09:30:01;;;;;;;;;9.00;7.33;;;;;17.31;100.00;126150.50;4958261;28;47146;-83
2023/05/08 09:32:28;;;;;;;;;8.00;4.67;;;;;17.15;100.00;127503.91;4975428;28;45910;-83
2023/05/08 09:34:53;;;;;;;;;7.00;5.67;;;;;17.35;100.00;123730.72;4976143;28;45508;-83
2023/05/08 09:37:19;;;;;;;;;5.33;5.33;;;;;17.40;100.00;125822.81;4988248;28;45586;-83
2023/05/08 09:39:46;;;;;;;;;8.00;8.00;;;;;17.49;100.00;124106.09;4988638;28;45625;-84
2023/05/08 09:42:12;;;;;;;;;7.67;6.00;;;;;17.70;100.00;121027.34;4996335;28;45542;-83
2023/05/08 09:44:48;;;;;;;;;8.00;6.00;;;;;18.38;100.00;121511.75;4974948;28;45618;-84
2023/05/08 09:47:19;;;;;;;;;10.67;7.00;;;;;18.96;100.00;109413.19;4972947;28;45619;-84
2023/05/08 09:50:02;;;;;;;;;6.50;5.75;;;;;20.21;100.00;69530.97;4966467;28;47065;-84
2023/05/08 09:52:28;;;;;;;;;6.00;6.00;;;;;21.10;98.51;-4777.38;4977736;28;45865;-84
2023/05/08 09:55:01;;;;;;;;;5.75;4.75;;;;;21.94;96.97;-14467.19;4975541;28;45575;-84
2023/05/08 09:57:27;;;;;;;;;6.00;5.00;;;;;22.71;92.84;-19812.19;4973502;28;45536;-85
2023/05/08 10:00:09;;;;;;;;;5.00;5.00;;;;;23.63;88.55;-19835.97;4974186;28;46443;-84
2023/05/08 10:02:37;;;;;;;;;5.75;5.75;;;;;24.19;84.14;-19850.69;4976336;28;45463;-85
2023/05/08 10:05:20;;;;;;;;;6.50;4.50;;;;;24.99;82.99;-19871.38;4976120;28;45396;-84
2023/05/08 10:07:46;;;;;;;;;4.00;4.00;;;;;25.45;80.15;-19883.16;4988177;28;45380;-85
2023/05/08 10:10:12;;;;;;;;;7.50;4.00;;;;;26.09;76.78;-19899.84;4994223;28;46239;-81
2023/05/08 10:12:40;;;;;;;;;5.00;5.00;;;;;26.76;73.13;-19917.03;4978787;28;45360;-79
2023/05/08 10:15:06;;;;;;;;;5.25;4.75;;;;;27.25;71.99;-19929.72;4974291;28;45423;-82
2023/05/08 10:17:47;;;;;;;;;6.00;6.00;;;;;27.43;71.58;-19934.34;4990254;28;45522;-81
2023/05/08 10:20:14;;;;;;;;;4.00;4.00;;;;;27.85;69.23;-19945.03;4990449;28;45368;-80
2023/05/08 10:22:43;;;;;;;;;4.25;4.25;;;;;28.00;68.59;-19948.97;4993674;28;45435;-81
2023/05/08 10:25:15;;;;;;;;;2.50;2.50;;;;;28.13;67.84;-19952.41;4995999;28;45655;-82
2023/05/08 10:27:52;;;;;;;;;4.75;4.75;;;;;28.08;67.58;-19951.09;4983661;28;45459;-79
2023/05/08 10:30:23;;;;;;;;;2.75;2.75;;;;;28.34;66.34;-19957.69;4988803;28;45439;-81
2023/05/08 10:32:53;;;;;;;;;4.00;3.00;;;;;28.38;64.45;-19958.88;4990066;28;45594;-82
2023/05/08 10:35:20;;;;;;;;;4.25;4.25;;;;;28.65;64.17;-19965.59;4990398;28;45499;-81
2023/05/08 10:37:47;;;;;;;;;4.00;4.00;;;;;28.68;63.14;-19966.53;4991149;28;45451;-81
2023/05/08 10:40:17;;;;;;;;;6.50;5.25;;;;;28.75;61.08;-19968.22;4990423;28;46094;-81
2023/05/08 10:42:43;;;;;;;;;3.00;3.00;;;;;28.75;62.64;-19968.22;4984934;28;45451;-80
2023/05/08 10:45:10;;;;;;;;;4.00;4.00;;;;;28.64;60.91;-19965.47;4993538;28;45551;-80
2023/05/08 10:48:08;;;;;;;;;5.00;5.00;;;;;28.38;58.76;-19958.75;4974860;28;45595;-81
2023/05/08 10:50:59;;;;;;;;;3.00;3.00;;;;;28.01;60.15;-19949.13;4863534;29;45785;-84
2023/05/08 10:53:37;;;;;;;;;5.50;4.50;;;;;27.67;59.60;-19940.41;4877107;29;45418;-84
2023/05/08 10:56:03;;;;;;;;;4.25;4.25;;;;;27.31;61.15;-19931.28;4877596;29;45465;-83
2023/05/08 10:58:30;;;;;;;;;5.25;5.25;;;;;26.85;61.91;-19919.41;4877582;29;45532;-83
2023/05/08 11:01:05;;;;;;;;;4.25;3.25;;;;;26.47;62.47;-19909.63;4876594;29;45769;-83
2023/05/08 11:03:32;;;;;;;;;5.50;4.00;;;;;26.10;63.69;-19899.97;4879810;29;45418;-83
2023/05/08 11:05:59;;;;;;;;;4.25;3.75;;;;;25.78;64.16;-19891.63;4879644;29;45577;-83
2023/05/08 11:08:26;;;;;;;;;4.00;4.00;;;;;25.47;63.91;-19883.81;4880687;29;45612;-83
2023/05/08 11:10:57;;;;;;;;;4.00;4.00;;;;;25.18;62.65;-19876.28;4879302;29;46442;-83
2023/05/08 11:13:26;;;;;;;;;4.25;4.25;;;;;24.95;64.87;-19870.31;4880262;29;45597;-82
2023/05/08 11:15:52;;;;;;;;;5.75;5.00;;;;;24.97;63.46;-19870.84;4880304;29;45495;-83
2023/05/08 11:18:17;;;;;;;;;4.50;4.00;;;;;24.93;63.73;-19869.66;4880800;29;45703;-83
2023/05/08 11:20:56;;;;;;;;;3.25;3.00;;;;;24.85;64.37;-19867.66;4878213;29;46152;-83
2023/05/08 11:23:32;;;;;;;;;4.25;2.75;;;;;24.71;65.09;-19864.09;4865716;29;46623;-82
2023/05/08 11:26:37;;;;;;;;;5.00;4.00;;;;;24.41;65.74;-19856.38;4880646;28;45703;-83
2023/05/08 11:29:15;;;;;;;;;4.25;2.75;;;;;24.21;65.97;-19851.09;4959417;28;45452;-83
2023/05/08 11:31:59;;;;;;;;;4.00;4.00;;;;;23.94;65.66;-19844.19;4991724;28;47105;-83
2023/05/08 11:34:43;;;;;;;;;5.25;3.75;;;;;23.93;66.92;-19843.78;4959247;28;45890;-82
2023/05/08 11:37:32;;;;;;;;;5.00;3.75;;;;;23.87;67.58;-19842.19;4978711;28;45531;-83
2023/05/08 11:40:35;;;;;;;;;4.75;4.25;;;;;23.74;66.80;-19838.88;4988070;28;45454;-82
2023/05/08 11:43:40;;;;;;;;;4.25;4.25;;;;;23.58;67.48;-19834.91;4997630;28;47501;-83
2023/05/08 11:46:19;;;;;;;;;5.00;4.25;;;;;23.61;67.08;-19835.56;4963894;28;45487;-83
2023/05/08 11:48:44;;;;;;;;;5.75;4.50;;;;;23.43;67.84;-19830.78;4978138;28;45432;-83
2023/05/08 11:51:10;;;;;;;;;5.00;4.50;;;;;23.33;67.48;-19828.25;4979437;28;45576;-83
2023/05/08 11:53:36;;;;;;;;;5.25;4.00;;;;;23.45;67.81;-19831.31;4981200;28;45521;-82
2023/05/08 11:56:02;;;;;;;;;5.75;3.00;;;;;23.44;68.03;-19831.06;4997791;28;45933;-82
2023/05/08 11:58:28;;;;;;;;;5.75;4.75;;;;;23.44;67.47;-19831.06;4985695;28;45571;-83
2023/05/08 12:00:54;;;;;;;;;5.00;4.00;;;;;23.43;67.24;-19830.91;4968787;28;45555;-83
2023/05/08 12:03:21;;;;;;;;;5.75;5.00;;;;;23.11;65.90;-19822.56;4969719;28;46194;-82
2023/05/08 12:05:48;;;;;;;;;3.00;3.00;;;;;23.28;66.73;-19827.06;4978474;28;45432;-81
2023/05/08 12:08:18;;;;;;;;;5.00;3.75;;;;;22.70;66.01;-19811.91;4988476;22;45420;-81
2023/05/08 12:10:56;;;;;;;;;3.75;3.75;;;;;23.16;66.73;-19824.00;4973778;28;45501;-84
2023/05/08 12:13:29;;;;;;;;;5.00;2.50;;;;;23.49;67.46;-19832.38;4976118;28;46957;-81
2023/05/08 12:15:59;;;;;;;;;3.00;3.00;;;;;23.88;67.56;-19842.47;4970519;28;46116;-81
2023/05/08 12:18:27;;;;;;;;;3.50;3.50;;;;;24.10;66.07;-19848.16;4971115;28;45512;-80
2023/05/08 12:24:21;;;;;;;;;2.00;2.00;;;;;24.24;66.16;-19851.88;5020183;22;45987;-82
2023/05/08 12:26:47;;;;;;;;;2.00;2.00;;;;;24.25;66.11;-19852.16;5011539;28;45720;-81
2023/05/08 12:29:12;;;;;;;;;4.00;2.25;;;;;24.20;65.67;-19850.94;5012664;28;45413;-82
2023/05/08 12:31:38;;;;;;;;;1.00;1.00;;;;;24.22;66.39;-19851.34;5013037;28;45495;-80
2023/05/08 12:34:05;;;;;;;;;3.00;3.00;;;;;24.31;66.06;-19853.59;5011482;28;46216;-82
2023/05/08 12:36:36;;;;;;;;;2.75;2.00;;;;;24.51;65.57;-19858.78;5009317;28;45726;-82
2023/05/08 12:39:15;;;;;;;;;3.25;2.25;;;;;24.30;65.32;-19853.47;5012606;28;46015;-83
2023/05/08 12:41:51;;;;;;;;;1.50;1.50;;;;;24.48;64.05;-19858.00;5012212;28;45629;-80
2023/05/08 12:44:23;;;;;;;;;4.00;1.75;;;;;24.35;64.66;-19854.81;5012650;28;45723;-82
2023/05/08 12:46:53;;;;;;;;;3.00;3.00;;;;;24.25;64.03;-19852.00;5011031;28;45349;-82
2023/05/08 12:49:30;;;;;;;;;2.75;2.75;;;;;24.12;63.47;-19848.84;5008792;28;45569;-81
2023/05/08 12:52:08;;;;;;;;;5.00;5.00;;;;;24.05;64.35;-19846.84;5012753;28;45760;-81
2023/05/08 12:54:37;;;;;;;;;4.25;2.00;;;;;24.02;64.25;-19846.19;5009814;28;45658;-82
2023/05/08 12:57:17;;;;;;;;;2.00;2.00;;;;;23.96;64.72;-19844.59;5008879;28;45489;-82
2023/05/08 12:59:44;;;;;;;;;4.50;2.00;;;;;23.98;65.55;-19845.13;5009055;28;45502;-81
2023/05/08 13:02:14;;;;;;;;;2.00;2.00;;;;;23.91;65.07;-19843.25;5012750;28;45574;-81
2023/05/08 13:04:40;;;;;;;;;2.25;2.25;;;;;23.90;65.37;-19843.00;4996026;28;47243;-82
2023/05/08 13:10:49;;;;;;;;;2.50;2.50;;;;;23.88;64.75;-19842.47;5019531;22;45557;-81
2023/05/08 13:13:20;;;;;;;;;3.25;3.25;;;;;23.74;64.59;-19839.03;4992875;28;45627;-83
2023/05/08 13:15:46;;;;;;;;;2.00;2.00;;;;;23.66;64.79;-19836.88;4987855;28;45396;-81
2023/05/08 13:18:11;;;;;;;;;1.25;1.25;;;;;23.62;63.79;-19835.81;4989657;28;45458;-81
2023/05/08 13:20:37;;;;;;;;;2.00;1.25;;;;;23.47;64.95;-19831.84;4968283;28;45544;-82
2023/05/08 13:23:03;;;;;;;;;4.00;3.00;;;;;23.54;64.51;-19833.69;4990617;28;45528;-81
2023/05/08 13:25:30;;;;;;;;;3.00;3.00;;;;;23.70;63.70;-19837.81;4995411;28;46276;-82
2023/05/08 13:27:55;;;;;;;;;2.50;2.50;;;;;23.56;64.88;-19834.38;4995453;28;45512;-82
2023/05/08 13:30:21;;;;;;;;;1.00;1.00;;;;;23.57;64.07;-19834.63;4993587;28;45653;-81
2023/05/08 13:32:47;;;;;;;;;1.00;1.00;;;;;23.25;64.14;-19826.13;4983468;28;46349;-81
2023/05/08 13:35:13;;;;;;;;;2.00;2.00;;;;;23.24;65.37;-19825.88;4988340;28;45531;-81
2023/05/08 13:37:38;;;;;;;;;2.00;2.00;;;;;23.18;63.75;-19824.41;4985176;28;45430;-81
2023/05/08 13:40:04;;;;;;;;;1.50;1.50;;;;;22.93;64.80;-19817.91;4991646;28;45522;-80
2023/05/08 13:42:29;;;;;;;;;2.00;2.00;;;;;23.19;65.18;-19824.69;4968030;28;45751;-81
2023/05/08 13:44:55;;;;;;;;;1.00;1.00;;;;;23.03;65.14;-19820.44;4985471;28;46041;-80
2023/05/08 13:47:20;;;;;;;;;2.00;2.00;;;;;22.76;65.13;-19813.50;4984511;28;45512;-83
2023/05/08 13:49:46;;;;;;;;;2.50;2.50;;;;;23.02;65.06;-19820.16;4985986;28;45656;-80
2023/05/08 13:52:11;;;;;;;;;1.00;1.00;;;;;22.97;66.02;-19818.97;4992244;28;45723;-89
2023/05/08 13:54:37;;;;;;;;;2.00;1.25;;;;;22.77;66.01;-19813.78;4987086;28;46005;-82
2023/05/08 13:57:02;;;;;;;;;1.50;1.00;;;;;22.77;65.18;-19813.91;4985711;28;46985;-85
2023/05/08 13:59:30;;;;;;;;;1.00;1.00;;;;;22.95;64.88;-19818.44;4989945;28;46043;-83
2023/05/08 14:01:55;;;;;;;;;0.00;0.00;;;;;23.01;65.67;-19819.91;4983513;28;45896;-83
2023/05/08 14:04:20;;;;;;;;;2.50;1.00;;;;;23.06;64.98;-19821.22;4961454;28;47989;-81
2023/05/08 14:06:46;;;;;;;;;1.00;1.00;;;;;23.05;64.89;-19821.09;4988314;28;46908;-83
2023/05/08 14:09:11;;;;;;;;;2.75;1.00;;;;;23.12;64.67;-19822.94;4984181;28;45422;-80
2023/05/08 14:11:36;;;;;;;;;2.00;1.00;;;;;22.90;64.21;-19817.22;4983899;28;45629;-81
2023/05/08 14:14:01;;;;;;;;;1.25;1.25;;;;;23.00;64.38;-19819.75;4985791;28;46335;-84
2023/05/08 14:16:27;;;;;;;;;2.50;1.00;;;;;22.91;63.92;-19817.38;4960043;28;55596;-85
2023/05/08 14:18:52;;;;;;;;;1.00;1.00;;;;;23.03;64.00;-19820.56;4970114;28;45474;-84
2023/05/08 14:21:18;;;;;;;;;0.00;0.00;;;;;23.12;64.38;-19822.81;4986596;28;45427;-82
2023/05/08 14:23:43;;;;;;;;;3.00;2.00;;;;;23.09;64.07;-19822.16;4991866;28;45467;-86
2023/05/08 14:26:09;;;;;;;;;1.00;1.00;;;;;23.13;63.91;-19823.22;4993184;28;45610;-84
2023/05/08 14:28:34;;;;;;;;;1.00;1.00;;;;;23.10;64.05;-19822.28;4979235;28;45404;-81
2023/05/08 14:30:59;;;;;;;;;2.00;1.00;;;;;23.07;63.99;-19821.50;4988169;28;45554;-81
2023/05/08 14:33:25;;;;;;;;;2.00;2.00;;;;;22.96;64.67;-19818.69;4981888;28;47427;-81
2023/05/08 14:35:50;;;;;;;;;2.00;1.00;;;;;22.96;64.21;-19818.81;4983943;28;45364;-81
2023/05/08 14:38:15;;;;;;;;;1.00;1.00;;;;;22.93;64.77;-19817.91;4970135;28;45573;-80
2023/05/08 14:40:41;;;;;;;;;1.00;1.00;;;;;22.90;64.69;-19817.22;4986658;28;48212;-81
2023/05/08 14:43:06;;;;;;;;;1.25;1.25;;;;;22.49;64.35;-19806.47;4996545;28;45448;-81
2023/05/08 14:45:31;;;;;;;;;2.25;2.00;;;;;22.71;65.17;-19812.19;4993232;28;45497;-82
2023/05/08 14:47:57;;;;;;;;;2.75;2.00;;;;;22.71;64.60;-19812.31;4993627;28;45514;-81
2023/05/08 14:50:26;;;;;;;;;1.75;1.75;;;;;22.68;65.32;-19811.53;4991266;28;45995;-81
2023/05/08 14:52:52;;;;;;;;;1.75;1.75;;;;;22.68;64.89;-19811.53;4993912;28;46656;-81
2023/05/08 14:55:19;;;;;;;;;2.00;2.00;;;;;22.61;64.08;-19809.53;4988098;28;45631;-81
2023/05/08 14:57:48;;;;;;;;;1.25;1.25;;;;;22.39;64.65;-19803.81;4989027;28;45585;-82
2023/05/08 15:00:15;;;;;;;;;2.00;2.00;;;;;22.37;64.51;-19803.41;4996995;28;45644;-81
2023/05/08 15:02:40;;;;;;;;;3.00;3.00;;;;;22.40;64.68;-19804.06;4985779;28;46246;-82
2023/05/08 15:05:06;;;;;;;;;1.75;1.75;;;;;22.49;65.39;-19806.47;4993485;28;45382;-82
2023/05/08 15:07:32;;;;;;;;;1.00;1.00;;;;;22.46;65.87;-19805.66;4970695;28;45613;-82
2023/05/08 15:09:57;;;;;;;;;1.00;1.00;;;;;22.44;64.81;-19805.28;4991750;28;45864;-80
2023/05/08 15:12:22;;;;;;;;;2.50;1.50;;;;;22.27;64.19;-19800.88;4986197;28;47140;-80
2023/05/08 15:14:48;;;;;;;;;1.50;1.50;;;;;22.37;65.49;-19803.41;4995511;28;45407;-79
2023/05/08 15:17:13;;;;;;;;;1.00;1.00;;;;;22.18;65.69;-19798.50;4997214;28;45572;-81
2023/05/08 15:19:39;;;;;;;;;1.00;1.00;;;;;22.34;65.20;-19802.63;4987169;28;45399;-82
2023/05/08 15:22:04;;;;;;;;;2.50;1.00;;;;;22.31;64.91;-19801.81;4992028;28;46058;-82
2023/05/08 15:24:29;;;;;;;;;1.50;1.50;;;;;22.30;65.71;-19801.69;4985219;28;45434;-80
2023/05/08 15:26:55;;;;;;;;;4.50;2.50;;;;;22.29;65.74;-19801.41;4996366;28;45443;-82
2023/05/08 15:29:20;;;;;;;;;0.00;0.00;;;;;22.30;66.12;-19801.69;4995189;28;45575;-83
2023/05/08 15:31:45;;;;;;;;;1.00;1.00;;;;;22.28;65.68;-19801.03;4987718;28;59645;-82
2023/05/08 15:34:11;;;;;;;;;3.50;2.00;;;;;22.28;65.81;-19801.03;4996752;28;45468;-82
2023/05/08 15:36:36;;;;;;;;;1.25;1.25;;;;;22.13;65.66;-19797.28;4981475;28;45381;-81
2023/05/08 15:39:02;;;;;;;;;3.00;1.50;;;;;22.24;65.83;-19799.94;4996259;28;45442;-80
2023/05/08 15:41:28;;;;;;;;;1.00;1.00;;;;;21.96;66.43;-19792.78;4995361;28;46346;-82
2023/05/08 15:43:53;;;;;;;;;1.50;1.50;;;;;22.07;65.61;-19795.69;4995696;28;45677;-82
2023/05/08 15:46:19;;;;;;;;;2.00;1.00;;;;;22.22;66.01;-19799.41;4989799;28;45801;-85
2023/05/08 15:48:44;;;;;;;;;1.00;1.00;;;;;21.90;65.91;-19791.16;4981501;28;45695;-82
2023/05/08 15:51:10;;;;;;;;;2.00;2.00;;;;;22.13;66.29;-19797.16;4991597;28;46889;-84
2023/05/08 15:53:35;;;;;;;;;1.75;1.75;;;;;21.83;66.11;-19789.31;4991168;28;45530;-82
2023/05/08 15:56:04;;;;;;;;;2.00;2.00;;;;;21.87;66.39;-19790.50;4984877;28;45617;-87
2023/05/08 15:58:29;;;;;;;;;1.00;1.00;;;;;21.95;66.84;-19792.50;4984509;28;45749;-87
2023/05/08 16:00:58;;;;;;;;;1.00;1.00;;;;;21.19;66.24;-19772.66;4995113;28;46196;-91
2023/05/08 16:03:23;;;;;;;;;1.00;1.00;;;;;22.16;66.16;-19797.94;4981740;28;45486;-85
2023/05/08 16:05:48;;;;;;;;;1.00;1.00;;;;;21.46;66.66;-19779.72;4992599;28;45407;-85
2023/05/08 16:08:14;;;;;;;;;1.00;1.00;;;;;21.52;66.24;-19781.19;4992288;28;45535;-85
2023/05/08 16:10:47;;;;;;;;;2.00;2.00;;;;;21.21;66.34;-19773.34;4995388;28;46335;-86
2023/05/08 16:13:15;;;;;;;;;1.00;1.00;;;;;21.02;67.36;-19768.28;4992411;28;45562;-88
2023/05/08 16:15:42;;;;;;;;;1.00;1.00;;;;;21.64;67.07;-19784.38;4992860;28;45499;-87
2023/05/08 16:18:07;;;;;;;;;2.00;2.00;;;;;21.14;67.64;-19771.47;4995312;28;45443;-84
2023/05/08 16:20:40;;;;;;;;;1.00;1.00;;;;;20.75;67.45;-19761.22;4995268;28;45582;-88
2023/05/08 16:23:05;;;;;;;;;1.00;1.00;;;;;21.78;67.26;-19787.97;4996395;28;45383;-86
2023/05/08 16:25:31;;;;;;;;;1.50;1.50;;;;;22.05;67.62;-19795.16;4999642;28;45530;-87
2023/05/08 16:27:56;;;;;;;;;1.75;1.75;;;;;21.93;68.14;-19792.09;4997969;28;46157;-89
2023/05/08 16:30:22;;;;;;;;;2.00;1.00;;;;;22.01;68.21;-19794.09;4998260;28;46113;-89
2023/05/08 16:32:47;;;;;;;;;2.25;1.50;;;;;21.69;67.97;-19785.72;4975733;28;45539;-89